Church Street, Georgia
Current Conditions -  °F | °C
As of 3:52 PM on Friday 21 Nov 2014 (Local Time) from KATL Reporting Station
Clear Clear  
Wind Chill: 63°   Ceiling: Unl
Heat Index: 63°   Visibility: 10mi
Dew Point: 35°   Wind: 6mph
Humidity: 35%   Direction: NA
Pressure: 30.34"   Gusts: NA
Location:  33.559°N, 84.4436°W
Report Text: KATL 212052Z VRB05KT 10SM CLR 17/02 A3034 RMK AO2 SLP277 T01720017 56011
Loading
Personal Weather Stations






























Interactive Weather Map New forecast layout! Learn more

10-Day Weather Forecast

Advertisements
Track Severe Weather on mobile